sensor_id;sensor_type;location;lat;lon;timestamp;P1;durP1;ratioP1;P2;durP2;ratioP2
76856;SDS011;69705;44.686;37.628;2023-06-22T00:00:56;10.27;;;4.50;;
76856;SDS011;69705;44.686;37.628;2023-06-22T00:03:23;10.18;;;3.90;;
76856;SDS011;69705;44.686;37.628;2023-06-22T00:05:50;11.80;;;4.72;;
76856;SDS011;69705;44.686;37.628;2023-06-22T00:08:18;10.05;;;4.07;;
76856;SDS011;69705;44.686;37.628;2023-06-22T00:10:45;8.67;;;4.07;;
76856;SDS011;69705;44.686;37.628;2023-06-22T00:13:12;9.30;;;4.38;;
76856;SDS011;69705;44.686;37.628;2023-06-22T00:15:43;8.95;;;4.30;;
76856;SDS011;69705;44.686;37.628;2023-06-22T00:18:10;11.10;;;4.03;;
76856;SDS011;69705;44.686;37.628;2023-06-22T00:20:37;8.70;;;3.65;;
76856;SDS011;69705;44.686;37.628;2023-06-22T00:23:05;8.40;;;4.20;;
76856;SDS011;69705;44.686;37.628;2023-06-22T00:25:35;8.48;;;4.30;;
76856;SDS011;69705;44.686;37.628;2023-06-22T00:28:07;8.63;;;4.38;;
76856;SDS011;69705;44.686;37.628;2023-06-22T00:30:35;12.43;;;4.10;;
76856;SDS011;69705;44.686;37.628;2023-06-22T00:33:01;9.88;;;4.20;;
76856;SDS011;69705;44.686;37.628;2023-06-22T00:35:28;11.10;;;4.33;;
76856;SDS011;69705;44.686;37.628;2023-06-22T00:37:55;11.40;;;4.30;;
76856;SDS011;69705;44.686;37.628;2023-06-22T00:40:27;12.35;;;4.50;;
76856;SDS011;69705;44.686;37.628;2023-06-22T00:42:57;10.73;;;4.50;;
76856;SDS011;69705;44.686;37.628;2023-06-22T00:45:24;10.18;;;4.25;;
76856;SDS011;69705;44.686;37.628;2023-06-22T00:47:52;10.40;;;4.43;;
76856;SDS011;69705;44.686;37.628;2023-06-22T00:50:21;9.40;;;4.43;;
76856;SDS011;69705;44.686;37.628;2023-06-22T00:52:56;11.77;;;5.03;;
76856;SDS011;69705;44.686;37.628;2023-06-22T00:55:25;9.57;;;4.20;;
76856;SDS011;69705;44.686;37.628;2023-06-22T00:57:52;9.85;;;4.80;;
76856;SDS011;69705;44.686;37.628;2023-06-22T01:00:23;12.47;;;5.40;;
76856;SDS011;69705;44.686;37.628;2023-06-22T01:02:50;10.85;;;4.60;;
76856;SDS011;69705;44.686;37.628;2023-06-22T01:05:22;8.80;;;4.80;;
76856;SDS011;69705;44.686;37.628;2023-06-22T01:08:00;10.23;;;5.00;;
76856;SDS011;69705;44.686;37.628;2023-06-22T01:10:55;10.82;;;5.20;;
76856;SDS011;69705;44.686;37.628;2023-06-22T01:16:21;10.48;;;5.20;;
76856;SDS011;69705;44.686;37.628;2023-06-22T01:18:53;10.70;;;4.70;;
76856;SDS011;69705;44.686;37.628;2023-06-22T01:21:23;11.05;;;5.28;;
76856;SDS011;69705;44.686;37.628;2023-06-22T01:26:43;9.17;;;5.00;;
76856;SDS011;69705;44.686;37.628;2023-06-22T01:29:14;10.52;;;5.45;;
76856;SDS011;69705;44.686;37.628;2023-06-22T01:31:43;10.52;;;5.55;;
76856;SDS011;69705;44.686;37.628;2023-06-22T01:34:11;13.90;;;5.70;;
76856;SDS011;69705;44.686;37.628;2023-06-22T01:36:39;12.68;;;5.93;;
76856;SDS011;69705;44.686;37.628;2023-06-22T01:39:06;13.07;;;6.33;;
76856;SDS011;69705;44.686;37.628;2023-06-22T01:41:35;13.63;;;5.90;;
76856;SDS011;69705;44.686;37.628;2023-06-22T01:44:06;12.00;;;6.00;;
76856;SDS011;69705;44.686;37.628;2023-06-22T01:46:35;13.85;;;6.03;;
76856;SDS011;69705;44.686;37.628;2023-06-22T01:49:03;11.05;;;5.93;;
76856;SDS011;69705;44.686;37.628;2023-06-22T01:51:30;10.40;;;5.77;;
76856;SDS011;69705;44.686;37.628;2023-06-22T01:53:59;13.02;;;5.90;;
76856;SDS011;69705;44.686;37.628;2023-06-22T01:56:27;11.63;;;5.97;;
76856;SDS011;69705;44.686;37.628;2023-06-22T02:01:34;12.48;;;6.13;;
76856;SDS011;69705;44.686;37.628;2023-06-22T02:04:08;11.90;;;5.80;;
76856;SDS011;69705;44.686;37.628;2023-06-22T02:06:42;10.80;;;5.75;;
76856;SDS011;69705;44.686;37.628;2023-06-22T02:09:12;14.40;;;6.07;;
76856;SDS011;69705;44.686;37.628;2023-06-22T02:11:43;11.13;;;6.32;;
76856;SDS011;69705;44.686;37.628;2023-06-22T02:14:11;11.85;;;6.38;;
76856;SDS011;69705;44.686;37.628;2023-06-22T02:16:40;10.50;;;6.60;;
76856;SDS011;69705;44.686;37.628;2023-06-22T02:19:08;14.65;;;6.63;;
76856;SDS011;69705;44.686;37.628;2023-06-22T02:21:35;13.35;;;6.20;;
76856;SDS011;69705;44.686;37.628;2023-06-22T02:24:07;12.75;;;6.38;;
76856;SDS011;69705;44.686;37.628;2023-06-22T02:26:33;10.15;;;6.15;;
76856;SDS011;69705;44.686;37.628;2023-06-22T02:29:01;10.90;;;6.30;;
76856;SDS011;69705;44.686;37.628;2023-06-22T02:31:28;15.63;;;6.70;;
76856;SDS011;69705;44.686;37.628;2023-06-22T02:33:57;14.05;;;6.30;;
76856;SDS011;69705;44.686;37.628;2023-06-22T02:36:24;14.27;;;6.90;;
76856;SDS011;69705;44.686;37.628;2023-06-22T02:38:53;13.35;;;6.97;;
76856;SDS011;69705;44.686;37.628;2023-06-22T02:41:24;15.77;;;7.73;;
76856;SDS011;69705;44.686;37.628;2023-06-22T02:43:51;18.95;;;8.88;;
76856;SDS011;69705;44.686;37.628;2023-06-22T02:46:19;20.02;;;10.77;;
76856;SDS011;69705;44.686;37.628;2023-06-22T02:48:46;18.58;;;11.20;;
76856;SDS011;69705;44.686;37.628;2023-06-22T02:51:12;18.80;;;9.07;;
76856;SDS011;69705;44.686;37.628;2023-06-22T02:53:40;14.43;;;7.83;;
76856;SDS011;69705;44.686;37.628;2023-06-22T02:56:12;17.55;;;8.30;;
76856;SDS011;69705;44.686;37.628;2023-06-22T02:58:40;14.63;;;7.40;;
76856;SDS011;69705;44.686;37.628;2023-06-22T03:01:10;15.80;;;7.60;;
76856;SDS011;69705;44.686;37.628;2023-06-22T03:03:39;14.02;;;8.48;;
76856;SDS011;69705;44.686;37.628;2023-06-22T03:06:06;17.20;;;7.37;;
76856;SDS011;69705;44.686;37.628;2023-06-22T03:08:33;14.65;;;8.13;;
76856;SDS011;69705;44.686;37.628;2023-06-22T03:11:00;13.45;;;7.57;;
76856;SDS011;69705;44.686;37.628;2023-06-22T03:13:27;15.25;;;7.45;;
76856;SDS011;69705;44.686;37.628;2023-06-22T03:15:53;15.65;;;7.68;;
76856;SDS011;69705;44.686;37.628;2023-06-22T03:18:20;13.00;;;6.97;;
76856;SDS011;69705;44.686;37.628;2023-06-22T03:20:48;17.33;;;6.97;;
76856;SDS011;69705;44.686;37.628;2023-06-22T03:23:14;14.90;;;6.90;;
76856;SDS011;69705;44.686;37.628;2023-06-22T03:25:42;15.70;;;7.15;;
76856;SDS011;69705;44.686;37.628;2023-06-22T03:28:10;12.60;;;6.63;;
76856;SDS011;69705;44.686;37.628;2023-06-22T03:30:37;11.47;;;6.63;;
76856;SDS011;69705;44.686;37.628;2023-06-22T03:33:09;12.68;;;6.18;;
76856;SDS011;69705;44.686;37.628;2023-06-22T03:35:35;14.77;;;6.53;;
76856;SDS011;69705;44.686;37.628;2023-06-22T03:38:02;13.52;;;6.57;;
76856;SDS011;69705;44.686;37.628;2023-06-22T03:40:30;12.90;;;6.75;;
76856;SDS011;69705;44.686;37.628;2023-06-22T03:43:02;12.77;;;6.33;;
76856;SDS011;69705;44.686;37.628;2023-06-22T03:45:29;15.55;;;6.63;;
76856;SDS011;69705;44.686;37.628;2023-06-22T03:47:57;13.57;;;6.30;;
76856;SDS011;69705;44.686;37.628;2023-06-22T03:50:24;16.27;;;6.85;;
76856;SDS011;69705;44.686;37.628;2023-06-22T03:52:50;14.30;;;6.97;;
76856;SDS011;69705;44.686;37.628;2023-06-22T03:55:21;13.47;;;6.53;;
76856;SDS011;69705;44.686;37.628;2023-06-22T03:57:47;13.40;;;6.95;;
76856;SDS011;69705;44.686;37.628;2023-06-22T04:00:14;13.30;;;6.35;;
76856;SDS011;69705;44.686;37.628;2023-06-22T04:02:44;13.52;;;6.50;;
76856;SDS011;69705;44.686;37.628;2023-06-22T04:05:10;14.57;;;6.38;;
76856;SDS011;69705;44.686;37.628;2023-06-22T04:07:37;10.57;;;6.27;;
76856;SDS011;69705;44.686;37.628;2023-06-22T04:10:04;16.30;;;6.60;;
76856;SDS011;69705;44.686;37.628;2023-06-22T04:12:31;13.15;;;6.60;;
76856;SDS011;69705;44.686;37.628;2023-06-22T04:14:58;13.88;;;6.60;;
76856;SDS011;69705;44.686;37.628;2023-06-22T04:17:25;15.38;;;6.55;;
76856;SDS011;69705;44.686;37.628;2023-06-22T04:19:51;15.20;;;6.77;;
76856;SDS011;69705;44.686;37.628;2023-06-22T04:22:18;13.63;;;6.90;;
76856;SDS011;69705;44.686;37.628;2023-06-22T04:24:44;12.10;;;6.32;;
76856;SDS011;69705;44.686;37.628;2023-06-22T04:27:11;12.48;;;6.03;;
76856;SDS011;69705;44.686;37.628;2023-06-22T04:29:42;12.45;;;6.20;;
76856;SDS011;69705;44.686;37.628;2023-06-22T04:32:17;14.20;;;6.50;;
76856;SDS011;69705;44.686;37.628;2023-06-22T04:34:44;15.60;;;6.32;;
76856;SDS011;69705;44.686;37.628;2023-06-22T04:37:10;15.63;;;6.47;;
76856;SDS011;69705;44.686;37.628;2023-06-22T04:39:44;14.35;;;7.00;;
76856;SDS011;69705;44.686;37.628;2023-06-22T04:42:11;15.40;;;6.45;;
76856;SDS011;69705;44.686;37.628;2023-06-22T04:44:43;13.10;;;6.30;;
76856;SDS011;69705;44.686;37.628;2023-06-22T04:47:10;12.90;;;6.28;;
76856;SDS011;69705;44.686;37.628;2023-06-22T04:49:37;14.30;;;6.65;;
76856;SDS011;69705;44.686;37.628;2023-06-22T04:52:04;13.90;;;6.30;;
76856;SDS011;69705;44.686;37.628;2023-06-22T04:54:32;14.35;;;6.13;;
76856;SDS011;69705;44.686;37.628;2023-06-22T04:57:03;13.90;;;6.33;;
76856;SDS011;69705;44.686;37.628;2023-06-22T04:59:35;12.80;;;6.38;;
76856;SDS011;69705;44.686;37.628;2023-06-22T05:02:05;15.02;;;6.45;;
76856;SDS011;69705;44.686;37.628;2023-06-22T05:04:32;12.05;;;6.22;;
76856;SDS011;69705;44.686;37.628;2023-06-22T05:06:59;11.95;;;5.78;;
76856;SDS011;69705;44.686;37.628;2023-06-22T05:09:26;15.50;;;6.23;;
76856;SDS011;69705;44.686;37.628;2023-06-22T05:11:53;14.63;;;5.70;;
76856;SDS011;69705;44.686;37.628;2023-06-22T05:14:19;13.75;;;6.07;;
76856;SDS011;69705;44.686;37.628;2023-06-22T05:16:46;15.75;;;5.72;;
76856;SDS011;69705;44.686;37.628;2023-06-22T05:19:12;14.45;;;5.93;;
76856;SDS011;69705;44.686;37.628;2023-06-22T05:21:39;11.50;;;5.40;;
76856;SDS011;69705;44.686;37.628;2023-06-22T05:24:06;14.98;;;6.18;;
76856;SDS011;69705;44.686;37.628;2023-06-22T05:26:33;13.48;;;6.18;;
76856;SDS011;69705;44.686;37.628;2023-06-22T05:29:00;12.55;;;6.03;;
76856;SDS011;69705;44.686;37.628;2023-06-22T05:31:28;12.63;;;5.72;;
76856;SDS011;69705;44.686;37.628;2023-06-22T05:33:55;14.57;;;6.00;;
76856;SDS011;69705;44.686;37.628;2023-06-22T05:36:22;15.43;;;5.82;;
76856;SDS011;69705;44.686;37.628;2023-06-22T05:38:52;11.43;;;5.47;;
76856;SDS011;69705;44.686;37.628;2023-06-22T05:41:19;15.25;;;5.80;;
76856;SDS011;69705;44.686;37.628;2023-06-22T05:43:46;14.20;;;5.68;;
76856;SDS011;69705;44.686;37.628;2023-06-22T05:46:12;13.77;;;5.20;;
76856;SDS011;69705;44.686;37.628;2023-06-22T05:48:39;11.32;;;5.78;;
76856;SDS011;69705;44.686;37.628;2023-06-22T05:51:06;13.95;;;6.10;;
76856;SDS011;69705;44.686;37.628;2023-06-22T05:53:33;12.70;;;5.30;;
76856;SDS011;69705;44.686;37.628;2023-06-22T05:56:00;13.02;;;5.85;;
76856;SDS011;69705;44.686;37.628;2023-06-22T05:58:26;11.20;;;5.70;;
76856;SDS011;69705;44.686;37.628;2023-06-22T06:00:53;14.10;;;5.32;;
76856;SDS011;69705;44.686;37.628;2023-06-22T06:03:19;11.13;;;5.32;;
76856;SDS011;69705;44.686;37.628;2023-06-22T06:05:46;12.25;;;5.32;;
76856;SDS011;69705;44.686;37.628;2023-06-22T06:08:13;10.88;;;5.40;;
76856;SDS011;69705;44.686;37.628;2023-06-22T06:10:40;9.73;;;5.00;;
76856;SDS011;69705;44.686;37.628;2023-06-22T06:13:06;11.05;;;5.68;;
76856;SDS011;69705;44.686;37.628;2023-06-22T06:15:33;12.13;;;5.50;;
76856;SDS011;69705;44.686;37.628;2023-06-22T06:18:00;8.73;;;5.13;;
76856;SDS011;69705;44.686;37.628;2023-06-22T06:20:30;8.93;;;4.70;;
76856;SDS011;69705;44.686;37.628;2023-06-22T06:22:57;9.97;;;5.00;;
76856;SDS011;69705;44.686;37.628;2023-06-22T06:25:24;10.60;;;4.60;;
76856;SDS011;69705;44.686;37.628;2023-06-22T06:27:51;12.55;;;5.03;;
76856;SDS011;69705;44.686;37.628;2023-06-22T06:30:20;15.80;;;4.97;;
76856;SDS011;69705;44.686;37.628;2023-06-22T06:32:47;9.90;;;5.15;;
76856;SDS011;69705;44.686;37.628;2023-06-22T06:35:15;9.80;;;5.03;;
76856;SDS011;69705;44.686;37.628;2023-06-22T06:37:47;11.98;;;4.65;;
76856;SDS011;69705;44.686;37.628;2023-06-22T06:40:15;10.23;;;4.93;;
76856;SDS011;69705;44.686;37.628;2023-06-22T06:42:43;9.52;;;4.95;;
76856;SDS011;69705;44.686;37.628;2023-06-22T06:45:12;12.07;;;4.95;;
76856;SDS011;69705;44.686;37.628;2023-06-22T06:47:41;9.57;;;4.83;;
76856;SDS011;69705;44.686;37.628;2023-06-22T06:50:08;10.63;;;4.55;;
76856;SDS011;69705;44.686;37.628;2023-06-22T06:52:35;9.60;;;4.82;;
76856;SDS011;69705;44.686;37.628;2023-06-22T06:55:02;8.68;;;4.63;;
76856;SDS011;69705;44.686;37.628;2023-06-22T06:57:30;10.18;;;4.90;;
76856;SDS011;69705;44.686;37.628;2023-06-22T06:59:58;11.87;;;4.83;;
76856;SDS011;69705;44.686;37.628;2023-06-22T07:02:25;10.93;;;4.63;;
76856;SDS011;69705;44.686;37.628;2023-06-22T07:04:53;8.60;;;4.40;;
76856;SDS011;69705;44.686;37.628;2023-06-22T07:07:23;9.45;;;4.80;;
76856;SDS011;69705;44.686;37.628;2023-06-22T07:09:50;11.93;;;4.70;;
76856;SDS011;69705;44.686;37.628;2023-06-22T07:12:16;11.47;;;4.10;;
76856;SDS011;69705;44.686;37.628;2023-06-22T07:14:43;9.43;;;4.78;;
76856;SDS011;69705;44.686;37.628;2023-06-22T07:17:09;10.13;;;4.75;;
76856;SDS011;69705;44.686;37.628;2023-06-22T07:19:36;10.68;;;4.60;;
76856;SDS011;69705;44.686;37.628;2023-06-22T07:22:02;10.10;;;4.70;;
76856;SDS011;69705;44.686;37.628;2023-06-22T07:24:29;7.67;;;4.30;;
76856;SDS011;69705;44.686;37.628;2023-06-22T07:26:56;9.70;;;4.60;;
76856;SDS011;69705;44.686;37.628;2023-06-22T07:29:25;12.48;;;4.63;;
76856;SDS011;69705;44.686;37.628;2023-06-22T07:31:52;11.60;;;4.55;;
76856;SDS011;69705;44.686;37.628;2023-06-22T07:34:20;10.27;;;4.45;;
76856;SDS011;69705;44.686;37.628;2023-06-22T07:36:46;13.50;;;4.50;;
76856;SDS011;69705;44.686;37.628;2023-06-22T07:39:13;11.82;;;4.53;;
76856;SDS011;69705;44.686;37.628;2023-06-22T07:41:41;8.85;;;4.15;;
76856;SDS011;69705;44.686;37.628;2023-06-22T07:44:08;11.02;;;4.68;;
76856;SDS011;69705;44.686;37.628;2023-06-22T07:46:35;9.98;;;4.53;;
76856;SDS011;69705;44.686;37.628;2023-06-22T07:49:01;10.17;;;4.57;;
76856;SDS011;69705;44.686;37.628;2023-06-22T07:51:29;12.77;;;4.68;;
76856;SDS011;69705;44.686;37.628;2023-06-22T07:53:55;15.18;;;4.68;;
76856;SDS011;69705;44.686;37.628;2023-06-22T07:56:22;11.57;;;5.03;;
76856;SDS011;69705;44.686;37.628;2023-06-22T07:58:49;8.75;;;4.20;;
76856;SDS011;69705;44.686;37.628;2023-06-22T08:01:16;11.27;;;4.53;;
76856;SDS011;69705;44.686;37.628;2023-06-22T08:03:43;10.30;;;4.28;;
76856;SDS011;69705;44.686;37.628;2023-06-22T08:06:09;10.88;;;4.70;;
76856;SDS011;69705;44.686;37.628;2023-06-22T08:08:36;10.38;;;4.60;;
76856;SDS011;69705;44.686;37.628;2023-06-22T08:11:03;10.15;;;3.97;;
76856;SDS011;69705;44.686;37.628;2023-06-22T08:13:30;8.23;;;3.90;;
76856;SDS011;69705;44.686;37.628;2023-06-22T08:15:56;8.60;;;3.90;;
76856;SDS011;69705;44.686;37.628;2023-06-22T08:18:23;10.27;;;4.40;;
76856;SDS011;69705;44.686;37.628;2023-06-22T08:20:49;10.52;;;4.68;;
76856;SDS011;69705;44.686;37.628;2023-06-22T08:23:16;11.45;;;4.28;;
76856;SDS011;69705;44.686;37.628;2023-06-22T08:25:43;9.30;;;4.20;;
76856;SDS011;69705;44.686;37.628;2023-06-22T08:28:10;8.55;;;4.35;;
76856;SDS011;69705;44.686;37.628;2023-06-22T08:30:36;10.30;;;4.63;;
76856;SDS011;69705;44.686;37.628;2023-06-22T08:33:03;9.00;;;4.28;;
76856;SDS011;69705;44.686;37.628;2023-06-22T08:35:29;8.38;;;3.80;;
76856;SDS011;69705;44.686;37.628;2023-06-22T08:37:56;11.10;;;4.20;;
76856;SDS011;69705;44.686;37.628;2023-06-22T08:40:24;9.00;;;3.90;;
76856;SDS011;69705;44.686;37.628;2023-06-22T08:42:51;11.18;;;4.57;;
76856;SDS011;69705;44.686;37.628;2023-06-22T08:45:17;10.25;;;4.22;;
76856;SDS011;69705;44.686;37.628;2023-06-22T08:47:44;11.85;;;4.25;;
76856;SDS011;69705;44.686;37.628;2023-06-22T08:50:11;11.47;;;4.13;;
76856;SDS011;69705;44.686;37.628;2023-06-22T08:52:38;10.18;;;4.28;;
76856;SDS011;69705;44.686;37.628;2023-06-22T08:55:09;8.70;;;4.13;;
76856;SDS011;69705;44.686;37.628;2023-06-22T08:57:36;10.30;;;4.40;;
76856;SDS011;69705;44.686;37.628;2023-06-22T09:00:08;11.07;;;4.40;;
76856;SDS011;69705;44.686;37.628;2023-06-22T09:02:42;11.00;;;4.43;;
76856;SDS011;69705;44.686;37.628;2023-06-22T09:05:12;11.00;;;4.70;;
76856;SDS011;69705;44.686;37.628;2023-06-22T09:07:40;8.70;;;4.35;;
76856;SDS011;69705;44.686;37.628;2023-06-22T09:10:06;9.15;;;4.20;;
76856;SDS011;69705;44.686;37.628;2023-06-22T09:12:33;9.73;;;4.18;;
76856;SDS011;69705;44.686;37.628;2023-06-22T09:15:00;10.23;;;4.37;;
76856;SDS011;69705;44.686;37.628;2023-06-22T09:17:29;9.40;;;4.35;;
76856;SDS011;69705;44.686;37.628;2023-06-22T09:19:55;10.18;;;4.05;;
76856;SDS011;69705;44.686;37.628;2023-06-22T09:22:22;13.60;;;4.50;;
76856;SDS011;69705;44.686;37.628;2023-06-22T09:24:49;9.93;;;4.35;;
76856;SDS011;69705;44.686;37.628;2023-06-22T09:27:15;11.30;;;4.23;;
76856;SDS011;69705;44.686;37.628;2023-06-22T09:29:42;8.93;;;4.60;;
76856;SDS011;69705;44.686;37.628;2023-06-22T09:32:08;11.57;;;3.90;;
76856;SDS011;69705;44.686;37.628;2023-06-22T09:34:39;9.40;;;4.40;;
76856;SDS011;69705;44.686;37.628;2023-06-22T09:37:05;9.38;;;4.22;;
76856;SDS011;69705;44.686;37.628;2023-06-22T09:39:32;9.50;;;4.03;;
76856;SDS011;69705;44.686;37.628;2023-06-22T09:41:59;7.45;;;4.00;;
76856;SDS011;69705;44.686;37.628;2023-06-22T09:44:26;10.07;;;3.97;;
76856;SDS011;69705;44.686;37.628;2023-06-22T09:46:53;16.63;;;4.85;;
76856;SDS011;69705;44.686;37.628;2023-06-22T09:49:19;9.75;;;4.63;;
76856;SDS011;69705;44.686;37.628;2023-06-22T09:51:46;11.00;;;4.13;;
76856;SDS011;69705;44.686;37.628;2023-06-22T09:54:12;12.50;;;4.40;;
76856;SDS011;69705;44.686;37.628;2023-06-22T09:56:39;9.20;;;3.95;;
76856;SDS011;69705;44.686;37.628;2023-06-22T09:59:06;12.15;;;4.10;;
76856;SDS011;69705;44.686;37.628;2023-06-22T10:01:32;11.20;;;4.25;;
76856;SDS011;69705;44.686;37.628;2023-06-22T10:03:59;8.23;;;4.13;;
76856;SDS011;69705;44.686;37.628;2023-06-22T10:06:26;10.15;;;4.40;;
76856;SDS011;69705;44.686;37.628;2023-06-22T10:08:53;10.80;;;4.53;;
76856;SDS011;69705;44.686;37.628;2023-06-22T10:11:19;11.25;;;4.45;;
76856;SDS011;69705;44.686;37.628;2023-06-22T10:13:46;23.63;;;4.60;;
76856;SDS011;69705;44.686;37.628;2023-06-22T10:16:12;10.53;;;3.70;;
76856;SDS011;69705;44.686;37.628;2023-06-22T10:18:39;9.90;;;4.38;;
76856;SDS011;69705;44.686;37.628;2023-06-22T10:21:05;10.50;;;4.40;;
76856;SDS011;69705;44.686;37.628;2023-06-22T10:23:32;13.10;;;4.72;;
76856;SDS011;69705;44.686;37.628;2023-06-22T10:25:59;8.75;;;4.25;;
76856;SDS011;69705;44.686;37.628;2023-06-22T10:28:25;10.53;;;4.40;;
76856;SDS011;69705;44.686;37.628;2023-06-22T10:30:57;10.95;;;4.20;;
76856;SDS011;69705;44.686;37.628;2023-06-22T10:33:23;10.75;;;4.50;;
76856;SDS011;69705;44.686;37.628;2023-06-22T10:35:50;11.85;;;4.35;;
76856;SDS011;69705;44.686;37.628;2023-06-22T10:38:17;10.48;;;4.50;;
76856;SDS011;69705;44.686;37.628;2023-06-22T10:40:43;12.67;;;4.30;;
76856;SDS011;69705;44.686;37.628;2023-06-22T10:43:10;11.75;;;4.10;;
76856;SDS011;69705;44.686;37.628;2023-06-22T10:45:37;9.68;;;4.03;;
76856;SDS011;69705;44.686;37.628;2023-06-22T10:48:03;8.45;;;4.20;;
76856;SDS011;69705;44.686;37.628;2023-06-22T10:50:30;8.98;;;4.15;;
76856;SDS011;69705;44.686;37.628;2023-06-22T10:52:57;11.93;;;4.10;;
76856;SDS011;69705;44.686;37.628;2023-06-22T10:55:24;14.90;;;4.13;;
76856;SDS011;69705;44.686;37.628;2023-06-22T10:57:50;9.25;;;3.97;;
76856;SDS011;69705;44.686;37.628;2023-06-22T11:00:23;13.18;;;4.25;;
76856;SDS011;69705;44.686;37.628;2023-06-22T11:02:50;10.32;;;4.28;;
76856;SDS011;69705;44.686;37.628;2023-06-22T11:05:17;9.63;;;4.03;;
76856;SDS011;69705;44.686;37.628;2023-06-22T11:07:44;10.68;;;4.30;;
76856;SDS011;69705;44.686;37.628;2023-06-22T11:10:11;12.68;;;4.40;;
76856;SDS011;69705;44.686;37.628;2023-06-22T11:12:38;7.70;;;3.90;;
76856;SDS011;69705;44.686;37.628;2023-06-22T11:15:04;9.05;;;3.83;;
76856;SDS011;69705;44.686;37.628;2023-06-22T11:17:31;9.60;;;4.23;;
76856;SDS011;69705;44.686;37.628;2023-06-22T11:19:58;11.93;;;4.00;;
76856;SDS011;69705;44.686;37.628;2023-06-22T11:22:26;10.48;;;4.00;;
76856;SDS011;69705;44.686;37.628;2023-06-22T11:24:52;12.73;;;4.07;;
76856;SDS011;69705;44.686;37.628;2023-06-22T11:27:19;10.98;;;3.80;;
76856;SDS011;69705;44.686;37.628;2023-06-22T11:29:46;10.47;;;3.77;;
76856;SDS011;69705;44.686;37.628;2023-06-22T11:32:12;12.20;;;4.15;;
76856;SDS011;69705;44.686;37.628;2023-06-22T11:34:41;10.02;;;3.90;;
76856;SDS011;69705;44.686;37.628;2023-06-22T11:37:08;9.60;;;4.03;;
76856;SDS011;69705;44.686;37.628;2023-06-22T11:39:34;9.93;;;3.97;;
76856;SDS011;69705;44.686;37.628;2023-06-22T11:42:01;9.37;;;4.00;;
76856;SDS011;69705;44.686;37.628;2023-06-22T11:44:27;10.20;;;3.70;;
76856;SDS011;69705;44.686;37.628;2023-06-22T11:46:54;9.60;;;4.05;;
76856;SDS011;69705;44.686;37.628;2023-06-22T11:49:20;9.23;;;3.65;;
76856;SDS011;69705;44.686;37.628;2023-06-22T11:51:47;8.50;;;3.75;;
76856;SDS011;69705;44.686;37.628;2023-06-22T11:54:14;10.97;;;4.03;;
76856;SDS011;69705;44.686;37.628;2023-06-22T11:56:41;9.38;;;3.90;;
76856;SDS011;69705;44.686;37.628;2023-06-22T11:59:08;10.40;;;3.88;;
76856;SDS011;69705;44.686;37.628;2023-06-22T12:01:34;9.50;;;3.95;;
76856;SDS011;69705;44.686;37.628;2023-06-22T12:04:01;8.02;;;3.70;;
76856;SDS011;69705;44.686;37.628;2023-06-22T12:06:31;10.83;;;3.83;;
76856;SDS011;69705;44.686;37.628;2023-06-22T12:08:59;8.20;;;4.07;;
76856;SDS011;69705;44.686;37.628;2023-06-22T12:11:26;7.35;;;3.90;;
76856;SDS011;69705;44.686;37.628;2023-06-22T12:13:52;15.32;;;3.70;;
76856;SDS011;69705;44.686;37.628;2023-06-22T12:16:19;11.45;;;3.90;;
76856;SDS011;69705;44.686;37.628;2023-06-22T12:18:47;10.03;;;5.10;;
76856;SDS011;69705;44.686;37.628;2023-06-22T12:21:14;7.45;;;3.97;;
76856;SDS011;69705;44.686;37.628;2023-06-22T12:23:40;12.40;;;4.30;;
76856;SDS011;69705;44.686;37.628;2023-06-22T12:26:07;10.20;;;4.00;;
76856;SDS011;69705;44.686;37.628;2023-06-22T12:28:39;9.88;;;3.90;;
76856;SDS011;69705;44.686;37.628;2023-06-22T12:31:05;9.67;;;4.00;;
76856;SDS011;69705;44.686;37.628;2023-06-22T12:33:32;9.27;;;3.80;;
76856;SDS011;69705;44.686;37.628;2023-06-22T12:35:58;9.70;;;3.90;;
76856;SDS011;69705;44.686;37.628;2023-06-22T12:38:25;9.25;;;3.80;;
76856;SDS011;69705;44.686;37.628;2023-06-22T12:40:52;9.48;;;3.95;;
76856;SDS011;69705;44.686;37.628;2023-06-22T12:43:18;10.17;;;3.63;;
76856;SDS011;69705;44.686;37.628;2023-06-22T12:45:45;11.52;;;3.50;;
76856;SDS011;69705;44.686;37.628;2023-06-22T12:48:11;11.32;;;3.95;;
76856;SDS011;69705;44.686;37.628;2023-06-22T12:50:38;11.10;;;3.90;;
76856;SDS011;69705;44.686;37.628;2023-06-22T12:53:05;8.65;;;3.70;;
76856;SDS011;69705;44.686;37.628;2023-06-22T12:55:32;9.97;;;3.60;;
76856;SDS011;69705;44.686;37.628;2023-06-22T12:57:58;10.52;;;4.00;;
76856;SDS011;69705;44.686;37.628;2023-06-22T13:00:25;9.43;;;3.80;;
76856;SDS011;69705;44.686;37.628;2023-06-22T13:02:51;8.45;;;3.85;;
76856;SDS011;69705;44.686;37.628;2023-06-22T13:05:18;9.18;;;3.53;;
76856;SDS011;69705;44.686;37.628;2023-06-22T13:07:45;7.73;;;3.60;;
76856;SDS011;69705;44.686;37.628;2023-06-22T13:10:12;7.60;;;3.60;;
76856;SDS011;69705;44.686;37.628;2023-06-22T13:12:38;11.70;;;3.80;;
76856;SDS011;69705;44.686;37.628;2023-06-22T13:15:05;8.98;;;3.97;;
76856;SDS011;69705;44.686;37.628;2023-06-22T13:17:32;13.57;;;3.65;;
76856;SDS011;69705;44.686;37.628;2023-06-22T13:19:59;11.17;;;4.23;;
76856;SDS011;69705;44.686;37.628;2023-06-22T13:22:26;8.98;;;3.60;;
76856;SDS011;69705;44.686;37.628;2023-06-22T13:24:55;8.52;;;3.67;;
76856;SDS011;69705;44.686;37.628;2023-06-22T13:27:22;9.02;;;3.80;;
76856;SDS011;69705;44.686;37.628;2023-06-22T13:29:49;7.10;;;3.50;;
76856;SDS011;69705;44.686;37.628;2023-06-22T13:32:16;11.33;;;3.80;;
76856;SDS011;69705;44.686;37.628;2023-06-22T13:34:43;8.90;;;3.67;;
76856;SDS011;69705;44.686;37.628;2023-06-22T13:37:09;10.05;;;3.70;;
76856;SDS011;69705;44.686;37.628;2023-06-22T13:39:36;8.43;;;3.97;;
76856;SDS011;69705;44.686;37.628;2023-06-22T13:42:08;8.70;;;3.50;;
76856;SDS011;69705;44.686;37.628;2023-06-22T13:44:34;7.47;;;3.60;;
76856;SDS011;69705;44.686;37.628;2023-06-22T13:47:01;9.68;;;3.60;;
76856;SDS011;69705;44.686;37.628;2023-06-22T13:49:28;9.63;;;3.70;;
76856;SDS011;69705;44.686;37.628;2023-06-22T13:51:54;12.23;;;3.80;;
76856;SDS011;69705;44.686;37.628;2023-06-22T13:54:21;8.27;;;3.35;;
76856;SDS011;69705;44.686;37.628;2023-06-22T13:56:48;10.23;;;3.63;;
76856;SDS011;69705;44.686;37.628;2023-06-22T13:59:15;9.23;;;3.50;;
76856;SDS011;69705;44.686;37.628;2023-06-22T14:01:41;10.48;;;3.58;;
76856;SDS011;69705;44.686;37.628;2023-06-22T14:04:09;9.73;;;3.95;;
76856;SDS011;69705;44.686;37.628;2023-06-22T14:06:37;9.45;;;3.70;;
76856;SDS011;69705;44.686;37.628;2023-06-22T14:09:04;8.93;;;3.70;;
76856;SDS011;69705;44.686;37.628;2023-06-22T14:11:31;9.10;;;3.40;;
76856;SDS011;69705;44.686;37.628;2023-06-22T14:13:58;9.85;;;3.42;;
76856;SDS011;69705;44.686;37.628;2023-06-22T14:16:24;11.10;;;3.75;;
76856;SDS011;69705;44.686;37.628;2023-06-22T14:18:51;8.05;;;3.80;;
76856;SDS011;69705;44.686;37.628;2023-06-22T14:21:18;11.07;;;3.87;;
76856;SDS011;69705;44.686;37.628;2023-06-22T14:23:44;8.45;;;3.50;;
76856;SDS011;69705;44.686;37.628;2023-06-22T14:26:15;10.57;;;3.60;;
76856;SDS011;69705;44.686;37.628;2023-06-22T14:28:45;9.70;;;3.78;;
76856;SDS011;69705;44.686;37.628;2023-06-22T14:31:14;9.20;;;3.65;;
76856;SDS011;69705;44.686;37.628;2023-06-22T14:33:44;9.17;;;3.70;;
76856;SDS011;69705;44.686;37.628;2023-06-22T14:36:12;10.85;;;3.45;;